Аэропорт: Бесовец. Петрозаводск

ICAO: ULPB

METAR:
2020-08-13 10:30:00
ULPB 131030Z 31002MPS 200V350 9999 SCT045 16/06 Q1017 R01/09//60 NOSIG RMK QFE759/1012
METAR:
Информация по данной станции не доступна